Time;durP1;ratioP1;P1;durP2;ratioP2;P2;SDS_P1;SDS_P2;PMS_P1;PMS_P2;Temp;Humidity;BMP_temperature;BMP_pressure;BME280_temperature;BME280_humidity;BME280_pressure;Samples;Min_cycle;Max_cycle;Signal;HPM_P1;HPM_P2
2023/12/07 00:01:06;;;;;;;9.02;5.05;;;18.90;51.50;;;;;;5053156;28;20029;-54
2023/12/07 00:03:31;;;;;;;10.45;5.13;;;18.90;51.30;;;;;;5053090;28;20025;-55
2023/12/07 00:05:57;;;;;;;8.27;5.10;;;18.90;51.30;;;;;;5052694;28;20035;-55
2023/12/07 00:08:23;;;;;;;8.88;5.35;;;18.90;51.30;;;;;;5052917;28;20495;-52
2023/12/07 00:10:49;;;;;;;9.90;5.40;;;18.90;51.30;;;;;;5052976;28;20039;-53
2023/12/07 00:13:15;;;;;;;9.68;5.60;;;18.90;51.30;;;;;;5052921;28;20484;-54
2023/12/07 00:15:40;;;;;;;8.90;5.05;;;18.90;51.20;;;;;;5052617;28;20029;-54
2023/12/07 00:18:06;;;;;;;9.15;4.55;;;18.90;51.30;;;;;;5052696;28;20055;-55
2023/12/07 00:20:32;;;;;;;7.63;4.47;;;18.90;51.20;;;;;;5052819;28;20108;-55
2023/12/07 00:22:58;;;;;;;8.98;4.43;;;18.90;51.10;;;;;;5052787;28;20070;-53
2023/12/07 00:25:24;;;;;;;8.85;4.95;;;18.90;51.20;;;;;;5052513;28;20052;-49
2023/12/07 00:27:50;;;;;;;9.30;5.07;;;18.90;51.20;;;;;;5052674;28;20032;-54
2023/12/07 00:30:15;;;;;;;10.23;4.47;;;18.90;51.10;;;;;;5052714;28;20028;-55
2023/12/07 00:32:44;;;;;;;8.75;5.05;;;18.90;51.10;;;;;;5052636;28;20025;-55
2023/12/07 00:35:10;;;;;;;6.97;4.43;;;18.90;51.10;;;;;;5052201;28;20033;-55
2023/12/07 00:37:36;;;;;;;8.18;4.95;;;18.90;51.10;;;;;;5052446;28;20408;-54
2023/12/07 00:40:03;;;;;;;8.60;4.85;;;18.90;51.00;;;;;;5052495;28;20033;-53
2023/12/07 00:42:30;;;;;;;7.30;4.53;;;18.90;50.90;;;;;;5052537;28;20025;-55
2023/12/07 00:44:56;;;;;;;8.00;4.75;;;18.90;51.60;;;;;;5052296;28;20028;-48
2023/12/07 00:47:21;;;;;;;7.35;4.60;;;18.90;51.10;;;;;;5051886;28;20025;-55
2023/12/07 00:49:47;;;;;;;8.48;5.30;;;18.90;51.00;;;;;;5052469;28;20036;-55
2023/12/07 00:52:13;;;;;;;7.80;4.60;;;18.90;50.90;;;;;;5051058;28;20029;-55
2023/12/07 00:54:40;;;;;;;9.05;4.43;;;18.90;50.90;;;;;;5052162;28;20103;-50
2023/12/07 00:57:06;;;;;;;8.23;4.50;;;18.90;50.90;;;;;;5051773;28;20025;-54
2023/12/07 00:59:36;;;;;;;7.88;4.60;;;18.90;51.00;;;;;;5052074;28;20154;-55
2023/12/07 01:02:05;;;;;;;;;;;18.90;50.90;;;;;;5052952;28;20055;-50
2023/12/07 01:04:31;;;;;;;7.32;4.47;;;18.90;50.90;;;;;;5051974;28;19915;-54
2023/12/07 01:06:57;;;;;;;6.57;4.20;;;18.90;50.80;;;;;;5051540;28;20029;-48
2023/12/07 01:09:23;;;;;;;7.32;4.32;;;18.90;50.90;;;;;;5051543;28;20029;-55
2023/12/07 01:11:50;;;;;;;6.75;4.20;;;18.90;50.80;;;;;;5052169;28;20024;-50
2023/12/07 01:14:16;;;;;;;9.75;4.22;;;18.90;50.80;;;;;;5051843;28;20441;-55
2023/12/07 01:16:43;;;;;;;7.85;4.55;;;18.80;50.80;;;;;;5051411;28;20060;-54
2023/12/07 01:19:09;;;;;;;7.90;4.40;;;18.80;51.30;;;;;;5051828;28;20029;-50
2023/12/07 01:21:35;;;;;;;5.38;4.07;;;18.90;50.80;;;;;;5051837;28;20067;-55
2023/12/07 01:24:01;;;;;;;8.07;4.88;;;18.90;51.30;;;;;;5051784;28;20029;-47
2023/12/07 01:26:26;;;;;;;7.10;4.53;;;18.90;50.70;;;;;;5051394;28;20064;-54
2023/12/07 01:28:52;;;;;;;7.43;4.32;;;18.90;50.80;;;;;;5051550;28;20446;-47
2023/12/07 01:31:19;;;;;;;6.38;4.03;;;18.90;50.80;;;;;;5051503;28;20048;-55
2023/12/07 01:33:44;;;;;;;6.93;4.25;;;18.90;50.70;;;;;;5051628;28;20166;-49
2023/12/07 01:36:11;;;;;;;7.53;4.20;;;18.90;50.60;;;;;;5051270;28;20107;-52
2023/12/07 01:38:37;;;;;;;6.03;4.10;;;18.90;50.60;;;;;;5051482;28;20033;-53
2023/12/07 01:41:04;;;;;;;7.15;3.97;;;18.90;50.60;;;;;;5051616;28;20404;-52
2023/12/07 01:43:30;;;;;;;7.68;3.97;;;18.90;50.60;;;;;;5051542;28;20017;-54
2023/12/07 01:45:57;;;;;;;8.77;4.10;;;18.90;50.50;;;;;;5051083;28;20040;-55
2023/12/07 01:48:26;;;;;;;5.60;4.05;;;18.90;50.50;;;;;;5051370;28;20373;-46
2023/12/07 01:50:53;;;;;;;5.85;4.03;;;18.90;50.40;;;;;;5050180;28;20032;-55
2023/12/07 01:53:22;;;;;;;6.25;4.20;;;18.90;50.40;;;;;;5051495;28;20451;-55
2023/12/07 01:55:50;;;;;;;6.55;4.40;;;18.90;50.40;;;;;;5051091;28;20032;-55
2023/12/07 01:58:17;;;;;;;7.35;4.22;;;18.90;50.40;;;;;;5051148;28;20048;-51
2023/12/07 02:00:43;;;;;;;7.55;4.20;;;18.90;50.30;;;;;;5051350;28;20384;-53
2023/12/07 02:03:09;;;;;;;5.25;3.60;;;18.90;50.40;;;;;;5051319;28;20025;-47
2023/12/07 02:05:36;;;;;;;5.75;3.90;;;18.90;50.40;;;;;;5051051;28;20548;-50
2023/12/07 02:08:02;;;;;;;7.25;3.97;;;18.90;50.40;;;;;;5051183;28;20068;-50
2023/12/07 02:10:28;;;;;;;8.73;4.15;;;18.90;50.40;;;;;;5051406;28;20064;-48
2023/12/07 02:12:54;;;;;;;6.63;3.92;;;18.90;50.30;;;;;;5051128;28;20087;-47
2023/12/07 02:15:21;;;;;;;6.03;4.00;;;18.90;50.30;;;;;;5050862;28;20431;-50
2023/12/07 02:17:55;;;;;;;5.22;4.00;;;18.90;50.30;;;;;;5051147;28;20035;-51
2023/12/07 02:20:28;;;;;;;6.40;4.10;;;18.90;50.40;;;;;;5051201;28;20029;-47
2023/12/07 02:23:04;;;;;;;5.25;3.83;;;18.90;50.30;;;;;;5054093;28;20513;-49
2023/12/07 02:25:50;;;;;;;5.35;3.78;;;18.80;50.30;;;;;;5054613;28;20064;-49
2023/12/07 02:28:17;;;;;;;6.00;3.85;;;18.90;50.40;;;;;;5050729;28;20037;-48
2023/12/07 02:30:43;;;;;;;5.88;3.70;;;18.90;50.30;;;;;;5054757;28;20107;-47
2023/12/07 02:33:08;;;;;;;4.63;3.60;;;18.90;50.30;;;;;;5054892;28;20036;-47
2023/12/07 02:35:36;;;;;;;5.75;3.75;;;18.90;50.30;;;;;;5054408;28;20033;-47
2023/12/07 02:38:03;;;;;;;5.82;3.72;;;18.90;50.40;;;;;;5054604;28;20112;-48
2023/12/07 02:40:30;;;;;;;5.25;3.55;;;18.80;50.20;;;;;;5054691;28;20396;-46
2023/12/07 02:42:57;;;;;;;4.80;3.60;;;18.80;50.30;;;;;;5054637;28;20043;-48
2023/12/07 02:45:23;;;;;;;5.20;3.60;;;18.90;50.40;;;;;;5054407;28;20059;-48
2023/12/07 02:47:49;;;;;;;4.97;3.63;;;18.80;50.30;;;;;;5054414;28;20072;-53
2023/12/07 02:50:15;;;;;;;6.70;3.78;;;18.80;50.30;;;;;;5054317;28;20035;-46
2023/12/07 02:52:41;;;;;;;5.25;3.45;;;18.80;50.20;;;;;;5054319;28;20191;-48
2023/12/07 02:55:07;;;;;;;6.50;3.70;;;18.80;50.20;;;;;;5053927;28;20131;-49
2023/12/07 02:57:36;;;;;;;5.72;3.60;;;18.80;50.20;;;;;;5054207;28;20458;-47
2023/12/07 03:00:06;;;;;;;5.82;3.70;;;18.80;50.20;;;;;;5052994;28;20025;-50
2023/12/07 03:02:41;;;;;;;5.03;3.30;;;18.80;50.20;;;;;;5054213;28;20025;-49
2023/12/07 03:05:07;;;;;;;4.88;3.40;;;18.80;50.10;;;;;;5053856;28;20037;-46
2023/12/07 03:07:33;;;;;;;4.72;3.40;;;18.80;50.30;;;;;;5054044;28;20033;-48
2023/12/07 03:09:59;;;;;;;4.80;3.10;;;18.80;50.10;;;;;;5054120;28;20025;-52
2023/12/07 03:12:25;;;;;;;6.07;3.85;;;18.80;50.20;;;;;;5054036;28;20033;-48
2023/12/07 03:14:51;;;;;;;5.82;3.85;;;18.80;50.10;;;;;;5053927;28;20067;-50
2023/12/07 03:17:17;;;;;;;5.50;3.65;;;18.80;50.10;;;;;;5053630;28;20067;-49
2023/12/07 03:19:42;;;;;;;5.80;3.28;;;18.80;50.10;;;;;;5054395;28;20033;-47
2023/12/07 03:22:08;;;;;;;4.78;3.15;;;18.80;50.10;;;;;;5053902;28;20031;-51
2023/12/07 03:24:35;;;;;;;6.82;3.63;;;18.80;50.20;;;;;;5053802;28;20065;-54
2023/12/07 03:27:01;;;;;;;5.90;3.95;;;18.80;50.10;;;;;;5053391;28;20017;-48
2023/12/07 03:29:26;;;;;;;5.47;3.88;;;18.80;50.10;;;;;;5053708;28;20032;-47
2023/12/07 03:31:52;;;;;;;4.18;3.40;;;18.80;50.10;;;;;;5053718;28;20025;-47
2023/12/07 03:34:18;;;;;;;5.20;3.45;;;18.80;50.10;;;;;;5053535;28;20059;-47
2023/12/07 03:36:47;;;;;;;5.40;3.47;;;18.80;50.00;;;;;;5053206;28;20487;-47
2023/12/07 03:39:14;;;;;;;5.30;3.70;;;18.80;50.50;;;;;;5053548;28;20033;-47
2023/12/07 03:41:40;;;;;;;5.10;3.30;;;18.80;50.00;;;;;;5053500;28;20021;-53
2023/12/07 03:44:06;;;;;;;5.55;3.88;;;18.80;49.90;;;;;;5053397;28;20121;-46
2023/12/07 03:46:31;;;;;;;4.75;3.65;;;18.80;50.00;;;;;;5053032;28;20029;-47
2023/12/07 03:48:57;;;;;;;5.72;3.75;;;18.80;49.90;;;;;;5053281;28;20029;-48
2023/12/07 03:51:23;;;;;;;5.15;3.70;;;18.80;50.00;;;;;;5053293;28;20147;-47
2023/12/07 03:53:49;;;;;;;6.45;4.20;;;18.80;49.90;;;;;;5053252;28;20032;-49
2023/12/07 03:56:24;;;;;;;4.78;3.47;;;18.80;50.00;;;;;;5052848;28;20033;-47
2023/12/07 03:58:50;;;;;;;5.20;3.65;;;18.80;49.90;;;;;;5093218;22;20048;-52
2023/12/07 04:01:16;;;;;;;5.90;3.95;;;18.80;50.00;;;;;;5072865;28;20032;-52
2023/12/07 04:03:42;;;;;;;5.63;3.70;;;18.80;50.00;;;;;;5073086;28;20537;-51
2023/12/07 04:06:08;;;;;;;5.93;3.88;;;18.80;50.00;;;;;;5072731;28;20021;-52
2023/12/07 04:08:34;;;;;;;6.68;3.85;;;18.80;49.90;;;;;;5072958;28;20078;-51
2023/12/07 04:11:00;;;;;;;5.80;3.80;;;18.80;49.90;;;;;;5072989;28;20032;-53
2023/12/07 04:13:26;;;;;;;6.22;4.20;;;18.80;49.90;;;;;;5072824;28;20030;-51
2023/12/07 04:15:52;;;;;;;5.68;3.97;;;18.80;49.90;;;;;;5072465;28;20042;-52
2023/12/07 04:18:18;;;;;;;7.15;4.45;;;18.80;49.90;;;;;;5072291;28;20457;-49
2023/12/07 04:20:43;;;;;;;6.25;4.10;;;18.80;49.90;;;;;;5072760;28;20093;-53
2023/12/07 04:23:09;;;;;;;6.57;4.15;;;18.80;49.80;;;;;;5071577;28;20565;-46
2023/12/07 04:25:35;;;;;;;6.13;4.15;;;18.80;49.90;;;;;;5072402;28;20037;-48
2023/12/07 04:28:01;;;;;;;9.15;4.72;;;18.80;49.80;;;;;;5072537;28;20036;-52
2023/12/07 04:30:26;;;;;;;6.53;4.25;;;18.80;49.70;;;;;;5072611;28;20097;-50
2023/12/07 04:32:52;;;;;;;6.32;4.28;;;18.80;49.80;;;;;;5072429;28;20185;-48
2023/12/07 04:35:18;;;;;;;7.43;4.60;;;18.80;49.90;;;;;;5072118;28;20111;-47
2023/12/07 04:37:44;;;;;;;8.07;4.97;;;18.80;49.80;;;;;;5072339;28;20545;-50
2023/12/07 04:40:10;;;;;;;7.22;4.85;;;18.80;49.80;;;;;;5071153;28;20032;-47
2023/12/07 04:42:36;;;;;;;6.28;4.53;;;18.80;49.70;;;;;;5072207;28;20020;-53
2023/12/07 04:45:03;;;;;;;7.45;4.80;;;18.80;49.70;;;;;;5071603;28;20111;-46
2023/12/07 04:47:29;;;;;;;6.22;4.25;;;18.80;49.70;;;;;;5072032;28;20459;-45
2023/12/07 04:49:55;;;;;;;7.30;4.57;;;18.80;49.80;;;;;;5072235;28;20020;-47
2023/12/07 04:52:21;;;;;;;8.55;4.97;;;18.80;49.80;;;;;;5072094;28;20040;-45
2023/12/07 04:54:46;;;;;;;7.85;4.80;;;18.80;49.80;;;;;;5072242;28;20505;-47
2023/12/07 04:57:12;;;;;;;8.70;5.00;;;18.90;49.80;;;;;;5070368;28;20569;-46
2023/12/07 04:59:38;;;;;;;8.75;5.13;;;18.90;49.90;;;;;;5072058;28;20052;-46
2023/12/07 05:02:04;;;;;;;8.20;5.18;;;18.80;49.80;;;;;;5071935;28;20024;-48
2023/12/07 05:04:29;;;;;;;9.07;5.50;;;18.90;49.80;;;;;;5072031;28;20036;-47
2023/12/07 05:06:55;;;;;;;8.05;4.97;;;18.90;49.90;;;;;;5071670;28;20020;-46
2023/12/07 05:09:21;;;;;;;9.05;5.45;;;18.90;49.80;;;;;;5071960;28;20024;-46
2023/12/07 05:11:47;;;;;;;9.27;5.45;;;18.90;49.90;;;;;;5071824;28;20506;-46
2023/12/07 05:14:13;;;;;;;8.30;4.93;;;18.90;50.00;;;;;;5071916;28;20020;-46
2023/12/07 05:16:40;;;;;;;7.38;4.97;;;18.80;49.80;;;;;;5071373;28;20028;-46
2023/12/07 05:19:05;;;;;;;8.05;5.07;;;18.90;49.90;;;;;;5071729;28;20427;-46
2023/12/07 05:21:32;;;;;;;7.85;5.03;;;18.90;50.00;;;;;;5071717;28;20029;-46
2023/12/07 05:23:58;;;;;;;8.68;5.28;;;18.90;49.90;;;;;;5071789;28;20021;-46
2023/12/07 05:26:23;;;;;;;9.48;5.30;;;18.90;49.90;;;;;;5071430;28;20090;-46
2023/12/07 05:28:49;;;;;;;8.50;5.40;;;18.90;49.90;;;;;;5071641;28;20024;-45
2023/12/07 05:31:18;;;;;;;10.45;5.28;;;18.90;50.00;;;;;;5071662;28;20055;-46
2023/12/07 05:33:44;;;;;;;9.93;5.55;;;18.90;50.00;;;;;;5071724;28;20021;-45
2023/12/07 05:36:11;;;;;;;9.15;5.40;;;18.90;50.00;;;;;;5070066;28;20028;-50
2023/12/07 05:38:37;;;;;;;10.57;5.15;;;18.90;49.90;;;;;;5071497;28;20024;-49
2023/12/07 05:41:03;;;;;;;10.73;5.28;;;18.90;50.00;;;;;;5070361;28;20526;-46
2023/12/07 05:43:29;;;;;;;9.05;5.72;;;18.90;50.00;;;;;;5071663;28;20070;-51
2023/12/07 05:45:55;;;;;;;8.45;5.45;;;18.90;50.00;;;;;;5071228;28;20033;-52
2023/12/07 05:48:20;;;;;;;8.85;5.35;;;18.90;50.00;;;;;;5071425;28;20029;-48
2023/12/07 05:50:46;;;;;;;9.02;5.57;;;18.90;50.00;;;;;;5071549;28;20028;-46
2023/12/07 05:53:12;;;;;;;8.13;5.35;;;18.90;50.10;;;;;;5071484;28;20060;-49
2023/12/07 05:55:39;;;;;;;8.77;5.10;;;18.90;50.00;;;;;;5071093;28;20368;-48
2023/12/07 05:58:05;;;;;;;9.05;5.35;;;18.90;50.10;;;;;;5074645;28;20103;-48
2023/12/07 06:00:31;;;;;;;9.35;5.80;;;18.90;50.10;;;;;;5075494;28;20503;-52
2023/12/07 06:02:57;;;;;;;9.60;5.45;;;18.90;50.00;;;;;;5075406;28;20028;-51
2023/12/07 06:05:23;;;;;;;8.68;5.25;;;18.90;50.10;;;;;;5075065;28;20436;-49
2023/12/07 06:07:48;;;;;;;11.52;6.05;;;18.90;50.10;;;;;;5075206;28;20048;-48
2023/12/07 06:10:14;;;;;;;8.98;5.45;;;18.90;50.10;;;;;;5075355;28;20280;-53
2023/12/07 06:12:41;;;;;;;9.57;5.82;;;18.90;50.00;;;;;;5057571;28;20043;-52
2023/12/07 06:15:07;;;;;;;10.30;5.95;;;18.90;50.10;;;;;;5074781;28;20032;-48
2023/12/07 06:17:33;;;;;;;9.43;5.88;;;18.90;50.10;;;;;;5075105;28;20141;-49
2023/12/07 06:19:59;;;;;;;9.25;5.63;;;18.90;50.00;;;;;;5075283;28;20438;-51
2023/12/07 06:22:25;;;;;;;10.77;6.10;;;18.90;50.00;;;;;;5074984;28;20028;-48
2023/12/07 06:24:51;;;;;;;10.65;5.90;;;18.90;50.10;;;;;;5074855;28;20029;-51
2023/12/07 06:27:18;;;;;;;10.27;6.45;;;18.90;50.20;;;;;;5074507;28;20028;-46
2023/12/07 06:29:43;;;;;;;12.02;6.25;;;18.90;49.90;;;;;;5073773;28;20036;-53
2023/12/07 06:32:09;;;;;;;12.57;6.30;;;18.90;50.00;;;;;;5074981;28;20518;-48
2023/12/07 06:34:40;;;;;;;18.88;7.05;;;18.90;50.00;;;;;;5074704;28;20082;-50
2023/12/07 06:37:06;;;;;;;20.50;7.97;;;18.90;50.10;;;;;;5074460;28;20024;-50
2023/12/07 06:39:32;;;;;;;21.77;9.23;;;18.90;50.10;;;;;;5075053;28;20103;-50
2023/12/07 06:41:59;;;;;;;24.25;8.32;;;18.90;50.30;;;;;;5074529;28;20461;-50
2023/12/07 06:44:25;;;;;;;21.95;8.48;;;18.90;50.30;;;;;;5073460;28;20032;-46
2023/12/07 06:46:51;;;;;;;25.55;9.43;;;18.90;50.10;;;;;;5074202;28;20054;-53
2023/12/07 06:49:17;;;;;;;20.65;8.65;;;18.90;50.30;;;;;;5074374;28;20029;-49
2023/12/07 06:51:42;;;;;;;25.75;9.65;;;18.90;50.80;;;;;;5074385;28;20029;-50
2023/12/07 06:54:08;;;;;;;34.65;11.82;;;18.90;49.90;;;;;;5074281;28;20032;-52
2023/12/07 06:56:34;;;;;;;28.00;10.30;;;18.90;50.20;;;;;;5073924;28;20028;-51
2023/12/07 06:59:00;;;;;;;34.33;10.77;;;19.00;50.20;;;;;;5074103;28;20033;-50
2023/12/07 07:01:26;;;;;;;41.60;14.32;;;19.00;50.40;;;;;;5074258;28;20399;-50
2023/12/07 07:03:52;;;;;;;40.42;13.95;;;19.00;50.40;;;;;;5074076;28;20484;-50
2023/12/07 07:06:17;;;;;;;52.00;15.57;;;19.00;50.60;;;;;;5073785;28;20032;-48
2023/12/07 07:08:43;;;;;;;39.55;14.38;;;19.00;50.40;;;;;;5073127;28;20126;-52
2023/12/07 07:11:16;;;;;;;45.25;16.15;;;19.00;50.50;;;;;;5074087;28;20147;-50
2023/12/07 07:13:42;;;;;;;44.72;14.80;;;19.10;50.60;;;;;;5074135;28;20043;-48
2023/12/07 07:16:08;;;;;;;47.63;16.05;;;19.00;50.40;;;;;;5073725;28;20029;-50
2023/12/07 07:18:35;;;;;;;46.78;15.98;;;19.10;50.40;;;;;;5073739;28;20029;-48
2023/12/07 07:21:01;;;;;;;47.25;15.40;;;19.10;50.30;;;;;;5073921;28;20024;-50
2023/12/07 07:23:26;;;;;;;43.67;15.45;;;19.10;50.40;;;;;;5072976;28;20498;-51
2023/12/07 07:25:52;;;;;;;43.78;14.63;;;19.10;50.70;;;;;;5072496;28;20072;-52
2023/12/07 07:28:18;;;;;;;48.67;16.13;;;19.10;50.80;;;;;;5072656;28;20518;-48
2023/12/07 07:30:44;;;;;;;33.05;10.25;;;19.10;50.40;;;;;;5073365;28;20399;-51
2023/12/07 07:33:09;;;;;;;39.92;12.85;;;19.10;53.20;;;;;;5073042;28;20120;-52
2023/12/07 07:35:35;;;;;;;41.85;12.40;;;19.10;51.70;;;;;;5073005;28;20041;-52
2023/12/07 07:38:01;;;;;;;25.05;14.32;;;19.10;51.70;;;;;;5072578;28;20027;-51
2023/12/07 07:40:27;;;;;;;24.63;15.90;;;19.00;49.40;;;;;;5073325;28;20021;-49
2023/12/07 07:42:52;;;;;;;27.83;17.58;;;18.60;44.10;;;;;;5073212;28;20103;-50
2023/12/07 07:45:18;;;;;;;54.17;17.63;;;18.30;42.50;;;;;;5072931;28;20254;-50
2023/12/07 07:47:44;;;;;;;28.92;14.75;;;18.10;44.10;;;;;;5072699;28;20044;-52
2023/12/07 07:50:11;;;;;;;27.25;14.27;;;18.20;45.40;;;;;;5062936;28;20064;-53
2023/12/07 07:52:36;;;;;;;20.38;12.43;;;18.30;46.40;;;;;;5058651;28;20721;-50
2023/12/07 07:55:04;;;;;;;31.33;13.80;;;18.50;46.80;;;;;;5068353;28;20033;-51
2023/12/07 07:57:30;;;;;;;23.33;12.13;;;18.60;47.20;;;;;;5070360;28;20029;-51
2023/12/07 07:59:57;;;;;;;27.25;10.88;;;18.80;47.40;;;;;;5069673;28;20016;-48
2023/12/07 08:02:23;;;;;;;30.80;12.88;;;18.90;47.50;;;;;;5069759;28;20032;-53
2023/12/07 08:04:49;;;;;;;24.73;12.60;;;19.00;48.10;;;;;;5070669;28;20028;-50
2023/12/07 08:07:15;;;;;;;28.92;11.82;;;19.10;48.30;;;;;;5069486;28;20418;-49
2023/12/07 08:09:41;;;;;;;23.55;10.32;;;19.10;48.50;;;;;;5070238;28;20024;-48
2023/12/07 08:12:08;;;;;;;33.67;12.43;;;19.10;49.30;;;;;;5070334;28;20533;-47
2023/12/07 08:14:37;;;;;;;30.30;11.65;;;19.30;52.40;;;;;;5070545;28;20107;-47
2023/12/07 08:17:05;;;;;;;26.15;11.40;;;19.40;53.30;;;;;;5070031;28;20043;-51
2023/12/07 08:19:31;;;;;;;24.67;11.30;;;19.50;54.30;;;;;;5069647;28;20028;-49
2023/12/07 08:21:57;;;;;;;21.35;10.48;;;19.60;54.90;;;;;;5070062;28;20050;-47
2023/12/07 08:24:23;;;;;;;22.13;10.70;;;19.70;55.50;;;;;;5070113;28;20031;-52
2023/12/07 08:26:48;;;;;;;26.58;10.65;;;19.80;56.50;;;;;;5069487;28;20028;-47
2023/12/07 08:29:14;;;;;;;22.88;11.90;;;19.80;57.70;;;;;;5070243;28;20035;-49
2023/12/07 08:31:40;;;;;;;25.90;10.32;;;19.90;57.90;;;;;;5070007;28;20139;-47
2023/12/07 08:34:06;;;;;;;21.35;8.68;;;19.80;55.70;;;;;;5070080;28;20028;-48
2023/12/07 08:36:32;;;;;;;24.10;9.40;;;19.80;54.40;;;;;;5064389;28;20119;-50
2023/12/07 08:38:58;;;;;;;25.17;9.45;;;19.80;54.40;;;;;;5067793;28;20025;-48
2023/12/07 08:41:23;;;;;;;14.35;7.63;;;19.80;54.90;;;;;;5067353;28;20404;-52
2023/12/07 08:43:49;;;;;;;20.02;9.18;;;19.80;55.20;;;;;;5067695;28;20054;-51
2023/12/07 08:46:15;;;;;;;19.27;7.93;;;19.80;54.80;;;;;;5067512;28;20104;-53
2023/12/07 08:48:41;;;;;;;17.25;8.30;;;19.80;55.60;;;;;;5066708;28;20063;-53
2023/12/07 08:51:08;;;;;;;18.52;7.88;;;19.80;55.70;;;;;;5067455;28;20063;-52
2023/12/07 08:53:35;;;;;;;18.17;8.05;;;19.80;55.50;;;;;;5067208;28;20024;-51
2023/12/07 08:56:02;;;;;;;15.27;7.43;;;19.80;55.70;;;;;;5067209;28;20029;-50
2023/12/07 08:58:27;;;;;;;17.50;7.95;;;19.80;55.70;;;;;;5065047;28;20098;-54
2023/12/07 09:00:53;;;;;;;18.70;7.30;;;19.80;56.20;;;;;;5067438;28;20029;-52
2023/12/07 09:03:19;;;;;;;14.18;6.50;;;19.80;56.30;;;;;;5069750;28;20017;-50
2023/12/07 09:05:45;;;;;;;15.00;6.70;;;19.80;56.30;;;;;;5069215;28;20492;-51
2023/12/07 09:08:10;;;;;;;16.15;6.90;;;19.70;56.20;;;;;;5069493;28;20067;-46
2023/12/07 09:10:36;;;;;;;13.80;6.35;;;19.70;56.50;;;;;;5069547;28;20044;-48
2023/12/07 09:13:02;;;;;;;16.95;7.18;;;19.80;56.70;;;;;;5069400;28;20388;-49
2023/12/07 09:15:28;;;;;;;20.63;7.10;;;19.70;57.10;;;;;;5069234;28;20428;-48
2023/12/07 09:17:54;;;;;;;13.35;6.28;;;19.70;57.60;;;;;;5069447;28;20403;-50
2023/12/07 09:20:20;;;;;;;19.45;6.80;;;19.70;57.20;;;;;;5069179;28;20021;-55
2023/12/07 09:22:48;;;;;;;17.58;6.18;;;19.70;57.70;;;;;;5069337;28;20028;-50
2023/12/07 09:25:15;;;;;;;15.35;6.28;;;19.70;57.90;;;;;;5068856;28;20052;-49
2023/12/07 09:27:41;;;;;;;12.32;6.68;;;19.70;57.80;;;;;;5069111;28;20025;-52
2023/12/07 09:30:10;;;;;;;11.65;5.93;;;19.70;58.00;;;;;;5069123;28;20031;-48
2023/12/07 09:32:42;;;;;;;13.00;6.25;;;19.70;57.90;;;;;;5069104;28;20033;-51
2023/12/07 09:35:14;;;;;;;11.20;6.28;;;19.70;57.70;;;;;;5068878;28;20056;-49
2023/12/07 09:37:40;;;;;;;14.60;6.85;;;19.60;57.70;;;;;;5069390;28;20082;-49
2023/12/07 09:40:07;;;;;;;9.75;5.55;;;19.70;58.10;;;;;;5069199;28;20105;-52
2023/12/07 09:42:33;;;;;;;11.60;6.18;;;19.70;57.90;;;;;;5069037;28;20029;-52
2023/12/07 09:44:59;;;;;;;20.20;6.60;;;19.70;57.60;;;;;;5068908;28;20029;-49
2023/12/07 09:47:28;;;;;;;13.25;5.80;;;19.70;57.80;;;;;;5068027;28;20158;-47
2023/12/07 09:49:54;;;;;;;15.55;6.43;;;19.70;57.30;;;;;;5068527;28;20029;-50
2023/12/07 09:52:22;;;;;;;12.80;5.80;;;19.70;57.60;;;;;;5068213;28;20070;-51
2023/12/07 09:54:50;;;;;;;13.43;5.82;;;19.70;57.60;;;;;;5068335;28;20024;-49
2023/12/07 09:57:16;;;;;;;17.67;6.18;;;19.60;57.70;;;;;;5067852;28;20043;-47
2023/12/07 09:59:41;;;;;;;13.70;6.63;;;19.60;57.60;;;;;;5068929;28;20025;-49
2023/12/07 10:02:07;;;;;;;12.88;6.10;;;19.60;57.70;;;;;;5068276;28;20029;-49
2023/12/07 10:04:33;;;;;;;14.10;6.75;;;19.60;57.70;;;;;;5069079;28;20024;-48
2023/12/07 10:06:59;;;;;;;13.48;6.20;;;19.60;57.60;;;;;;5068667;28;20033;-47
2023/12/07 10:09:26;;;;;;;12.20;5.97;;;19.60;57.70;;;;;;5068844;28;20142;-48
2023/12/07 10:12:03;;;;;;;16.23;6.35;;;19.60;58.40;;;;;;5068276;28;20060;-48
2023/12/07 10:14:29;;;;;;;13.85;6.28;;;19.60;57.60;;;;;;5068731;28;20031;-50
2023/12/07 10:16:56;;;;;;;14.80;6.28;;;19.60;57.80;;;;;;5068205;28;20028;-49
2023/12/07 10:19:22;;;;;;;10.25;5.47;;;19.60;57.70;;;;;;5068702;28;20435;-48
2023/12/07 10:21:50;;;;;;;11.55;5.82;;;19.60;58.10;;;;;;5068656;28;20035;-49
2023/12/07 10:24:24;;;;;;;15.45;6.57;;;19.60;58.00;;;;;;5067655;28;20033;-48
2023/12/07 10:26:51;;;;;;;15.18;6.60;;;19.60;58.00;;;;;;5068306;28;20025;-47
2023/12/07 10:29:23;;;;;;;11.10;6.20;;;19.60;57.90;;;;;;5068421;28;20032;-49
2023/12/07 10:31:49;;;;;;;11.13;6.65;;;19.50;57.70;;;;;;5068554;28;20024;-48
2023/12/07 10:34:20;;;;;;;12.57;6.70;;;19.50;58.00;;;;;;5068243;28;20032;-50
2023/12/07 10:36:47;;;;;;;13.48;6.35;;;19.50;58.00;;;;;;5068069;28;20024;-48
2023/12/07 10:39:13;;;;;;;9.93;5.82;;;19.50;57.70;;;;;;5068491;28;20033;-47
2023/12/07 10:41:43;;;;;;;12.63;6.20;;;19.60;58.10;;;;;;5067588;28;20112;-48
2023/12/07 10:44:13;;;;;;;15.75;6.05;;;19.60;57.90;;;;;;5071871;28;20082;-47
2023/12/07 10:46:41;;;;;;;14.02;5.72;;;19.60;57.70;;;;;;5065477;28;20040;-48
2023/12/07 10:49:10;;;;;;;9.40;5.82;;;19.60;57.60;;;;;;5071509;28;20074;-47
2023/12/07 10:51:49;;;;;;;11.40;5.60;;;19.60;57.60;;;;;;5072059;28;20064;-49
2023/12/07 10:54:18;;;;;;;13.45;6.18;;;19.60;57.50;;;;;;5071891;28;20033;-46
2023/12/07 10:56:45;;;;;;;13.75;5.78;;;19.60;57.40;;;;;;5071703;28;20098;-48
2023/12/07 10:59:13;;;;;;;10.60;5.53;;;19.60;57.10;;;;;;5071563;28;20491;-49
2023/12/07 11:01:43;;;;;;;11.55;5.85;;;19.60;57.10;;;;;;5070657;28;20036;-47
2023/12/07 11:04:13;;;;;;;10.52;5.75;;;19.60;56.90;;;;;;5071709;28;20451;-48
2023/12/07 11:06:40;;;;;;;10.82;6.03;;;19.60;57.20;;;;;;5071543;28;20032;-48
2023/12/07 11:09:19;;;;;;;10.55;5.55;;;19.60;57.00;;;;;;5071516;28;20025;-54
2023/12/07 11:11:59;;;;;;;10.20;5.60;;;19.60;57.00;;;;;;5071368;28;20025;-54
2023/12/07 11:14:25;;;;;;;13.82;6.50;;;19.60;56.90;;;;;;5071819;28;20044;-49
2023/12/07 11:16:53;;;;;;;15.85;5.75;;;19.60;57.60;;;;;;5071295;28;20028;-49
2023/12/07 11:19:35;;;;;;;11.25;5.72;;;19.50;57.80;;;;;;5071690;28;20020;-52
2023/12/07 11:22:02;;;;;;;9.23;5.85;;;19.60;58.20;;;;;;5071163;28;20439;-49
2023/12/07 11:24:28;;;;;;;10.77;5.22;;;19.60;58.20;;;;;;5071406;28;20021;-51
2023/12/07 11:26:58;;;;;;;19.65;7.22;;;19.60;58.50;;;;;;5070629;28;20058;-52
2023/12/07 11:29:29;;;;;;;14.90;6.97;;;19.70;63.70;;;;;;5071194;28;20036;-49
2023/12/07 11:32:03;;;;;;;11.65;6.10;;;19.70;63.70;;;;;;5071410;28;20037;-49
2023/12/07 11:34:42;;;;;;;12.35;7.03;;;19.70;62.60;;;;;;5063249;28;20028;-49
2023/12/07 11:37:16;;;;;;;12.65;6.03;;;19.70;61.50;;;;;;5070171;28;20029;-52
2023/12/07 11:39:42;;;;;;;12.38;6.45;;;19.70;61.50;;;;;;5071284;28;20028;-47
2023/12/07 11:42:19;;;;;;;15.75;6.32;;;19.70;61.80;;;;;;5071060;28;20027;-50
2023/12/07 11:44:50;;;;;;;14.23;6.35;;;19.70;62.20;;;;;;5071062;28;20032;-49
2023/12/07 11:47:18;;;;;;;12.27;5.97;;;19.70;61.70;;;;;;5070435;28;20043;-47
2023/12/07 11:49:44;;;;;;;12.65;6.63;;;19.70;61.20;;;;;;5069797;28;20020;-46
2023/12/07 11:52:18;;;;;;;12.68;6.93;;;19.70;61.30;;;;;;5070638;28;20017;-46
2023/12/07 11:54:49;;;;;;;14.02;7.22;;;19.70;62.00;;;;;;5070644;28;20027;-48
2023/12/07 11:57:16;;;;;;;13.90;7.43;;;19.70;61.20;;;;;;5070148;28;20020;-50
2023/12/07 11:59:47;;;;;;;13.30;7.78;;;19.70;60.90;;;;;;5070037;28;20020;-48
2023/12/07 12:02:14;;;;;;;13.52;7.00;;;19.70;60.60;;;;;;5069984;28;20051;-49
2023/12/07 12:04:43;;;;;;;14.80;7.90;;;19.70;60.30;;;;;;5070603;28;20037;-47
2023/12/07 12:07:08;;;;;;;11.85;7.40;;;19.60;60.20;;;;;;5069046;28;20021;-50
2023/12/07 12:09:34;;;;;;;13.48;7.90;;;19.70;59.60;;;;;;5070569;28;20119;-53
2023/12/07 12:12:01;;;;;;;14.10;7.80;;;19.60;59.80;;;;;;5070468;28;20536;-50
2023/12/07 12:14:28;;;;;;;15.13;7.82;;;19.60;59.10;;;;;;5069534;28;20017;-49
2023/12/07 12:16:55;;;;;;;14.85;7.88;;;19.70;59.00;;;;;;5069996;28;20052;-53
2023/12/07 12:19:22;;;;;;;12.80;7.47;;;19.60;59.20;;;;;;5070351;28;20048;-51
2023/12/07 12:21:48;;;;;;;14.10;7.10;;;19.70;58.80;;;;;;5070184;28;20031;-49
2023/12/07 12:24:14;;;;;;;12.77;7.43;;;19.60;58.50;;;;;;5070008;28;20024;-48
2023/12/07 12:26:42;;;;;;;12.90;7.38;;;19.70;58.50;;;;;;5069890;28;20021;-48
2023/12/07 12:29:08;;;;;;;12.20;7.72;;;19.60;58.40;;;;;;5069960;28;20066;-49
2023/12/07 12:31:35;;;;;;;12.73;7.60;;;19.60;58.30;;;;;;5070219;28;20511;-46
2023/12/07 12:34:13;;;;;;;13.77;7.35;;;19.60;58.70;;;;;;5070293;28;20501;-49
2023/12/07 12:36:39;;;;;;;15.85;8.35;;;19.60;57.90;;;;;;5069830;28;20150;-51
2023/12/07 12:39:08;;;;;;;12.27;7.50;;;19.60;57.80;;;;;;5069868;28;20052;-53